sensor_id;sensor_type;location;lat;lon;timestamp;P1;durP1;ratioP1;P2;durP2;ratioP2
5285;SDS011;2665;53.112;7.358;2022-12-18T00:00:46;29.07;;;14.07;;
5285;SDS011;2665;53.112;7.358;2022-12-18T00:03:12;24.93;;;13.10;;
5285;SDS011;2665;53.112;7.358;2022-12-18T00:05:47;37.10;;;16.37;;
5285;SDS011;2665;53.112;7.358;2022-12-18T00:08:17;30.80;;;14.10;;
5285;SDS011;2665;53.112;7.358;2022-12-18T00:10:44;30.10;;;14.17;;
5285;SDS011;2665;53.112;7.358;2022-12-18T00:13:12;41.37;;;16.50;;
5285;SDS011;2665;53.112;7.358;2022-12-18T00:15:38;29.87;;;13.50;;
5285;SDS011;2665;53.112;7.358;2022-12-18T00:18:04;30.10;;;13.83;;
5285;SDS011;2665;53.112;7.358;2022-12-18T00:20:30;31.37;;;11.07;;
5285;SDS011;2665;53.112;7.358;2022-12-18T00:22:56;34.57;;;14.33;;
5285;SDS011;2665;53.112;7.358;2022-12-18T00:25:22;34.30;;;13.07;;
5285;SDS011;2665;53.112;7.358;2022-12-18T00:27:48;33.20;;;15.57;;
5285;SDS011;2665;53.112;7.358;2022-12-18T00:30:13;29.43;;;13.23;;
5285;SDS011;2665;53.112;7.358;2022-12-18T00:32:39;27.33;;;12.27;;
5285;SDS011;2665;53.112;7.358;2022-12-18T00:35:05;29.23;;;12.73;;
5285;SDS011;2665;53.112;7.358;2022-12-18T00:37:33;40.20;;;13.87;;
5285;SDS011;2665;53.112;7.358;2022-12-18T00:39:59;23.20;;;13.43;;
5285;SDS011;2665;53.112;7.358;2022-12-18T00:42:25;30.47;;;13.07;;
5285;SDS011;2665;53.112;7.358;2022-12-18T00:45:09;36.37;;;14.47;;
5285;SDS011;2665;53.112;7.358;2022-12-18T00:47:35;46.00;;;15.00;;
5285;SDS011;2665;53.112;7.358;2022-12-18T00:50:01;37.43;;;11.80;;
5285;SDS011;2665;53.112;7.358;2022-12-18T00:52:26;32.83;;;12.27;;
5285;SDS011;2665;53.112;7.358;2022-12-18T00:54:52;41.00;;;17.70;;
5285;SDS011;2665;53.112;7.358;2022-12-18T00:57:17;33.00;;;13.30;;
5285;SDS011;2665;53.112;7.358;2022-12-18T00:59:43;46.27;;;17.47;;
5285;SDS011;2665;53.112;7.358;2022-12-18T01:02:08;52.00;;;15.87;;
5285;SDS011;2665;53.112;7.358;2022-12-18T01:04:34;48.43;;;15.10;;
5285;SDS011;2665;53.112;7.358;2022-12-18T01:07:00;32.40;;;13.40;;
5285;SDS011;2665;53.112;7.358;2022-12-18T01:09:25;37.40;;;14.67;;
5285;SDS011;2665;53.112;7.358;2022-12-18T01:11:51;34.87;;;16.30;;
5285;SDS011;2665;53.112;7.358;2022-12-18T01:14:16;55.57;;;18.03;;
5285;SDS011;2665;53.112;7.358;2022-12-18T01:16:42;40.93;;;16.73;;
5285;SDS011;2665;53.112;7.358;2022-12-18T01:19:08;38.17;;;12.67;;
5285;SDS011;2665;53.112;7.358;2022-12-18T01:21:33;29.37;;;11.50;;
5285;SDS011;2665;53.112;7.358;2022-12-18T01:23:59;31.00;;;13.57;;
5285;SDS011;2665;53.112;7.358;2022-12-18T01:26:25;29.80;;;13.93;;
5285;SDS011;2665;53.112;7.358;2022-12-18T01:28:54;36.30;;;14.67;;
5285;SDS011;2665;53.112;7.358;2022-12-18T01:31:25;26.30;;;11.80;;
5285;SDS011;2665;53.112;7.358;2022-12-18T01:33:52;41.03;;;15.93;;
5285;SDS011;2665;53.112;7.358;2022-12-18T01:36:22;40.37;;;17.77;;
5285;SDS011;2665;53.112;7.358;2022-12-18T01:38:52;22.33;;;12.90;;
5285;SDS011;2665;53.112;7.358;2022-12-18T01:41:22;27.97;;;14.50;;
5285;SDS011;2665;53.112;7.358;2022-12-18T01:46:20;41.10;;;15.07;;
5285;SDS011;2665;53.112;7.358;2022-12-18T01:48:48;36.57;;;14.83;;
5285;SDS011;2665;53.112;7.358;2022-12-18T01:51:20;34.10;;;13.77;;
5285;SDS011;2665;53.112;7.358;2022-12-18T01:53:46;24.83;;;10.47;;
5285;SDS011;2665;53.112;7.358;2022-12-18T01:56:13;23.77;;;11.03;;
5285;SDS011;2665;53.112;7.358;2022-12-18T01:58:43;41.03;;;11.90;;
5285;SDS011;2665;53.112;7.358;2022-12-18T02:01:15;22.37;;;12.03;;
5285;SDS011;2665;53.112;7.358;2022-12-18T02:03:42;29.90;;;14.07;;
5285;SDS011;2665;53.112;7.358;2022-12-18T02:06:13;26.77;;;13.23;;
5285;SDS011;2665;53.112;7.358;2022-12-18T02:08:57;38.67;;;14.70;;
5285;SDS011;2665;53.112;7.358;2022-12-18T02:16:43;23.93;;;10.53;;
5285;SDS011;2665;53.112;7.358;2022-12-18T02:19:23;25.13;;;12.23;;
5285;SDS011;2665;53.112;7.358;2022-12-18T02:22:11;28.87;;;9.07;;
5285;SDS011;2665;53.112;7.358;2022-12-18T02:27:38;25.00;;;13.13;;
5285;SDS011;2665;53.112;7.358;2022-12-18T02:30:07;32.77;;;11.93;;
5285;SDS011;2665;53.112;7.358;2022-12-18T02:32:34;29.77;;;14.30;;
5285;SDS011;2665;53.112;7.358;2022-12-18T02:35:06;21.10;;;10.63;;
5285;SDS011;2665;53.112;7.358;2022-12-18T02:37:34;25.53;;;10.23;;
5285;SDS011;2665;53.112;7.358;2022-12-18T02:40:01;18.83;;;9.27;;
5285;SDS011;2665;53.112;7.358;2022-12-18T02:42:28;34.40;;;12.97;;
5285;SDS011;2665;53.112;7.358;2022-12-18T02:44:54;29.40;;;12.40;;
5285;SDS011;2665;53.112;7.358;2022-12-18T02:47:21;26.20;;;10.07;;
5285;SDS011;2665;53.112;7.358;2022-12-18T02:49:53;25.67;;;10.43;;
5285;SDS011;2665;53.112;7.358;2022-12-18T03:06:12;29.83;;;11.07;;
5285;SDS011;2665;53.112;7.358;2022-12-18T03:08:46;24.70;;;11.03;;
5285;SDS011;2665;53.112;7.358;2022-12-18T03:11:15;30.93;;;12.13;;
5285;SDS011;2665;53.112;7.358;2022-12-18T03:14:00;24.20;;;11.47;;
5285;SDS011;2665;53.112;7.358;2022-12-18T03:16:28;25.67;;;12.37;;
5285;SDS011;2665;53.112;7.358;2022-12-18T03:18:56;24.07;;;11.20;;
5285;SDS011;2665;53.112;7.358;2022-12-18T03:21:53;38.00;;;13.13;;
5285;SDS011;2665;53.112;7.358;2022-12-18T03:24:21;28.80;;;11.90;;
5285;SDS011;2665;53.112;7.358;2022-12-18T03:26:50;21.00;;;10.37;;
5285;SDS011;2665;53.112;7.358;2022-12-18T03:29:21;20.97;;;9.47;;
5285;SDS011;2665;53.112;7.358;2022-12-18T03:31:56;17.13;;;9.80;;
5285;SDS011;2665;53.112;7.358;2022-12-18T03:34:31;22.53;;;7.60;;
5285;SDS011;2665;53.112;7.358;2022-12-18T03:37:02;26.30;;;10.60;;
5285;SDS011;2665;53.112;7.358;2022-12-18T03:39:29;21.23;;;8.50;;
5285;SDS011;2665;53.112;7.358;2022-12-18T03:42:05;25.30;;;11.10;;
5285;SDS011;2665;53.112;7.358;2022-12-18T03:50:19;28.03;;;11.37;;
5285;SDS011;2665;53.112;7.358;2022-12-18T03:55:54;24.63;;;10.13;;
5285;SDS011;2665;53.112;7.358;2022-12-18T03:58:23;18.60;;;8.07;;
5285;SDS011;2665;53.112;7.358;2022-12-18T04:00:51;19.10;;;9.77;;
5285;SDS011;2665;53.112;7.358;2022-12-18T04:03:19;17.23;;;7.90;;
5285;SDS011;2665;53.112;7.358;2022-12-18T04:05:46;18.87;;;8.90;;
5285;SDS011;2665;53.112;7.358;2022-12-18T04:08:15;21.83;;;11.70;;
5285;SDS011;2665;53.112;7.358;2022-12-18T04:10:41;23.47;;;10.17;;
5285;SDS011;2665;53.112;7.358;2022-12-18T04:13:07;19.20;;;10.53;;
5285;SDS011;2665;53.112;7.358;2022-12-18T04:15:34;23.07;;;9.90;;
5285;SDS011;2665;53.112;7.358;2022-12-18T04:18:01;25.83;;;9.03;;
5285;SDS011;2665;53.112;7.358;2022-12-18T04:20:27;19.27;;;9.97;;
5285;SDS011;2665;53.112;7.358;2022-12-18T04:22:53;19.03;;;8.57;;
5285;SDS011;2665;53.112;7.358;2022-12-18T04:25:18;22.63;;;10.70;;
5285;SDS011;2665;53.112;7.358;2022-12-18T04:27:44;21.57;;;9.03;;
5285;SDS011;2665;53.112;7.358;2022-12-18T04:30:10;18.67;;;9.07;;
5285;SDS011;2665;53.112;7.358;2022-12-18T04:32:36;17.83;;;8.27;;
5285;SDS011;2665;53.112;7.358;2022-12-18T04:35:02;21.80;;;9.87;;
5285;SDS011;2665;53.112;7.358;2022-12-18T04:37:29;16.70;;;7.77;;
5285;SDS011;2665;53.112;7.358;2022-12-18T04:39:55;28.80;;;9.20;;
5285;SDS011;2665;53.112;7.358;2022-12-18T04:42:20;24.40;;;7.97;;
5285;SDS011;2665;53.112;7.358;2022-12-18T04:44:46;17.00;;;7.10;;
5285;SDS011;2665;53.112;7.358;2022-12-18T04:47:11;15.90;;;9.63;;
5285;SDS011;2665;53.112;7.358;2022-12-18T04:49:37;18.30;;;8.30;;
5285;SDS011;2665;53.112;7.358;2022-12-18T04:52:02;17.37;;;8.00;;
5285;SDS011;2665;53.112;7.358;2022-12-18T04:54:28;17.70;;;10.27;;
5285;SDS011;2665;53.112;7.358;2022-12-18T04:56:54;20.53;;;7.20;;
5285;SDS011;2665;53.112;7.358;2022-12-18T04:59:19;17.33;;;8.23;;
5285;SDS011;2665;53.112;7.358;2022-12-18T05:01:45;12.83;;;6.70;;
5285;SDS011;2665;53.112;7.358;2022-12-18T05:04:10;23.40;;;8.13;;
5285;SDS011;2665;53.112;7.358;2022-12-18T05:06:36;24.00;;;9.03;;
5285;SDS011;2665;53.112;7.358;2022-12-18T05:09:02;20.63;;;8.03;;
5285;SDS011;2665;53.112;7.358;2022-12-18T05:11:27;16.37;;;6.57;;
5285;SDS011;2665;53.112;7.358;2022-12-18T05:13:56;23.70;;;9.67;;
5285;SDS011;2665;53.112;7.358;2022-12-18T05:16:21;16.53;;;7.50;;
5285;SDS011;2665;53.112;7.358;2022-12-18T05:18:47;14.37;;;7.80;;
5285;SDS011;2665;53.112;7.358;2022-12-18T05:21:12;18.40;;;7.47;;
5285;SDS011;2665;53.112;7.358;2022-12-18T05:23:38;21.77;;;7.07;;
5285;SDS011;2665;53.112;7.358;2022-12-18T05:26:04;10.07;;;7.07;;
5285;SDS011;2665;53.112;7.358;2022-12-18T05:28:32;17.63;;;7.30;;
5285;SDS011;2665;53.112;7.358;2022-12-18T05:31:00;12.30;;;6.27;;
5285;SDS011;2665;53.112;7.358;2022-12-18T05:33:30;15.10;;;8.00;;
5285;SDS011;2665;53.112;7.358;2022-12-18T05:35:59;13.53;;;5.73;;
5285;SDS011;2665;53.112;7.358;2022-12-18T05:38:31;14.90;;;7.20;;
5285;SDS011;2665;53.112;7.358;2022-12-18T05:40:57;8.80;;;6.13;;
5285;SDS011;2665;53.112;7.358;2022-12-18T05:43:23;7.63;;;4.70;;
5285;SDS011;2665;53.112;7.358;2022-12-18T05:45:50;11.93;;;6.70;;
5285;SDS011;2665;53.112;7.358;2022-12-18T05:48:17;11.67;;;5.40;;
5285;SDS011;2665;53.112;7.358;2022-12-18T05:50:43;12.20;;;5.80;;
5285;SDS011;2665;53.112;7.358;2022-12-18T05:53:13;18.77;;;6.67;;
5285;SDS011;2665;53.112;7.358;2022-12-18T05:55:41;29.40;;;6.70;;
5285;SDS011;2665;53.112;7.358;2022-12-18T05:58:08;8.53;;;5.40;;
5285;SDS011;2665;53.112;7.358;2022-12-18T06:00:35;13.03;;;7.30;;
5285;SDS011;2665;53.112;7.358;2022-12-18T06:03:06;10.90;;;5.90;;
5285;SDS011;2665;53.112;7.358;2022-12-18T06:05:37;8.30;;;5.97;;
5285;SDS011;2665;53.112;7.358;2022-12-18T06:08:04;17.37;;;6.07;;
5285;SDS011;2665;53.112;7.358;2022-12-18T06:10:30;10.17;;;6.40;;
5285;SDS011;2665;53.112;7.358;2022-12-18T06:12:55;10.00;;;5.50;;
5285;SDS011;2665;53.112;7.358;2022-12-18T06:15:21;17.00;;;6.30;;
5285;SDS011;2665;53.112;7.358;2022-12-18T06:17:47;8.50;;;5.50;;
5285;SDS011;2665;53.112;7.358;2022-12-18T06:20:12;10.67;;;7.17;;
5285;SDS011;2665;53.112;7.358;2022-12-18T06:22:38;13.93;;;6.40;;
5285;SDS011;2665;53.112;7.358;2022-12-18T06:25:03;10.87;;;6.27;;
5285;SDS011;2665;53.112;7.358;2022-12-18T06:27:31;10.60;;;5.70;;
5285;SDS011;2665;53.112;7.358;2022-12-18T06:29:58;15.60;;;5.73;;
5285;SDS011;2665;53.112;7.358;2022-12-18T06:32:24;11.90;;;6.43;;
5285;SDS011;2665;53.112;7.358;2022-12-18T06:34:50;10.30;;;5.90;;
5285;SDS011;2665;53.112;7.358;2022-12-18T06:37:15;16.63;;;7.10;;
5285;SDS011;2665;53.112;7.358;2022-12-18T06:39:41;15.17;;;6.67;;
5285;SDS011;2665;53.112;7.358;2022-12-18T06:42:07;8.27;;;5.20;;
5285;SDS011;2665;53.112;7.358;2022-12-18T06:44:32;12.57;;;5.83;;
5285;SDS011;2665;53.112;7.358;2022-12-18T06:46:58;13.03;;;6.20;;
5285;SDS011;2665;53.112;7.358;2022-12-18T06:49:23;11.97;;;5.70;;
5285;SDS011;2665;53.112;7.358;2022-12-18T06:51:49;11.17;;;5.13;;
5285;SDS011;2665;53.112;7.358;2022-12-18T06:54:14;9.27;;;5.90;;
5285;SDS011;2665;53.112;7.358;2022-12-18T06:56:40;9.63;;;5.87;;
5285;SDS011;2665;53.112;7.358;2022-12-18T06:59:06;9.27;;;5.20;;
5285;SDS011;2665;53.112;7.358;2022-12-18T07:01:31;12.50;;;6.87;;
5285;SDS011;2665;53.112;7.358;2022-12-18T07:03:57;11.90;;;6.17;;
5285;SDS011;2665;53.112;7.358;2022-12-18T07:06:23;6.53;;;5.20;;
5285;SDS011;2665;53.112;7.358;2022-12-18T07:08:50;7.57;;;4.80;;
5285;SDS011;2665;53.112;7.358;2022-12-18T07:11:18;16.07;;;8.10;;
5285;SDS011;2665;53.112;7.358;2022-12-18T07:13:44;9.70;;;4.70;;
5285;SDS011;2665;53.112;7.358;2022-12-18T07:16:14;14.27;;;6.83;;
5285;SDS011;2665;53.112;7.358;2022-12-18T07:18:41;9.03;;;5.40;;
5285;SDS011;2665;53.112;7.358;2022-12-18T07:21:08;10.33;;;7.23;;
5285;SDS011;2665;53.112;7.358;2022-12-18T07:23:35;11.73;;;5.53;;
5285;SDS011;2665;53.112;7.358;2022-12-18T07:26:02;14.50;;;6.67;;
5285;SDS011;2665;53.112;7.358;2022-12-18T07:28:29;7.60;;;5.60;;
5285;SDS011;2665;53.112;7.358;2022-12-18T07:30:54;11.43;;;6.17;;
5285;SDS011;2665;53.112;7.358;2022-12-18T07:33:20;9.60;;;5.20;;
5285;SDS011;2665;53.112;7.358;2022-12-18T07:35:49;11.07;;;6.47;;
5285;SDS011;2665;53.112;7.358;2022-12-18T07:38:14;11.03;;;5.10;;
5285;SDS011;2665;53.112;7.358;2022-12-18T07:40:40;10.43;;;4.93;;
5285;SDS011;2665;53.112;7.358;2022-12-18T07:43:05;7.47;;;5.13;;
5285;SDS011;2665;53.112;7.358;2022-12-18T07:45:31;11.90;;;4.87;;
5285;SDS011;2665;53.112;7.358;2022-12-18T07:47:56;11.27;;;6.33;;
5285;SDS011;2665;53.112;7.358;2022-12-18T07:50:22;9.20;;;5.13;;
5285;SDS011;2665;53.112;7.358;2022-12-18T07:52:48;5.70;;;4.47;;
5285;SDS011;2665;53.112;7.358;2022-12-18T07:55:14;6.90;;;3.67;;
5285;SDS011;2665;53.112;7.358;2022-12-18T07:57:40;10.50;;;4.07;;
5285;SDS011;2665;53.112;7.358;2022-12-18T08:00:05;5.80;;;4.00;;
5285;SDS011;2665;53.112;7.358;2022-12-18T08:02:32;6.93;;;5.23;;
5285;SDS011;2665;53.112;7.358;2022-12-18T08:04:57;5.93;;;3.40;;
5285;SDS011;2665;53.112;7.358;2022-12-18T08:07:23;6.23;;;4.30;;
5285;SDS011;2665;53.112;7.358;2022-12-18T08:09:49;11.40;;;4.23;;
5285;SDS011;2665;53.112;7.358;2022-12-18T08:12:14;10.30;;;4.73;;
5285;SDS011;2665;53.112;7.358;2022-12-18T08:14:41;7.17;;;5.20;;
5285;SDS011;2665;53.112;7.358;2022-12-18T08:17:06;16.37;;;3.43;;
5285;SDS011;2665;53.112;7.358;2022-12-18T08:19:32;8.60;;;4.13;;
5285;SDS011;2665;53.112;7.358;2022-12-18T08:21:57;12.10;;;5.90;;
5285;SDS011;2665;53.112;7.358;2022-12-18T08:24:23;5.47;;;4.80;;
5285;SDS011;2665;53.112;7.358;2022-12-18T08:26:49;8.47;;;5.17;;
5285;SDS011;2665;53.112;7.358;2022-12-18T08:29:15;10.50;;;4.40;;
5285;SDS011;2665;53.112;7.358;2022-12-18T08:31:41;10.20;;;4.30;;
5285;SDS011;2665;53.112;7.358;2022-12-18T08:34:07;11.40;;;6.03;;
5285;SDS011;2665;53.112;7.358;2022-12-18T08:36:33;6.53;;;3.83;;
5285;SDS011;2665;53.112;7.358;2022-12-18T08:38:59;7.40;;;4.33;;
5285;SDS011;2665;53.112;7.358;2022-12-18T08:41:26;7.43;;;3.80;;
5285;SDS011;2665;53.112;7.358;2022-12-18T08:43:52;6.20;;;4.30;;
5285;SDS011;2665;53.112;7.358;2022-12-18T08:46:37;8.30;;;3.47;;
5285;SDS011;2665;53.112;7.358;2022-12-18T08:49:04;14.03;;;5.70;;
5285;SDS011;2665;53.112;7.358;2022-12-18T08:51:31;9.47;;;5.47;;
5285;SDS011;2665;53.112;7.358;2022-12-18T08:53:56;7.87;;;4.40;;
5285;SDS011;2665;53.112;7.358;2022-12-18T08:56:22;7.57;;;3.83;;
5285;SDS011;2665;53.112;7.358;2022-12-18T08:58:50;6.20;;;4.50;;
5285;SDS011;2665;53.112;7.358;2022-12-18T09:01:17;6.93;;;3.13;;
5285;SDS011;2665;53.112;7.358;2022-12-18T09:03:43;8.80;;;4.30;;
5285;SDS011;2665;53.112;7.358;2022-12-18T09:06:13;8.57;;;4.10;;
5285;SDS011;2665;53.112;7.358;2022-12-18T09:08:40;5.10;;;3.77;;
5285;SDS011;2665;53.112;7.358;2022-12-18T09:11:11;24.00;;;5.03;;
5285;SDS011;2665;53.112;7.358;2022-12-18T09:13:48;8.10;;;3.37;;
5285;SDS011;2665;53.112;7.358;2022-12-18T09:16:14;5.50;;;3.80;;
5285;SDS011;2665;53.112;7.358;2022-12-18T09:18:40;7.33;;;3.70;;
5285;SDS011;2665;53.112;7.358;2022-12-18T09:21:13;11.90;;;4.40;;
5285;SDS011;2665;53.112;7.358;2022-12-18T09:23:43;14.60;;;3.87;;
5285;SDS011;2665;53.112;7.358;2022-12-18T09:26:09;8.70;;;3.90;;
5285;SDS011;2665;53.112;7.358;2022-12-18T09:28:35;6.10;;;4.50;;
5285;SDS011;2665;53.112;7.358;2022-12-18T09:31:05;4.10;;;2.83;;
5285;SDS011;2665;53.112;7.358;2022-12-18T09:33:32;9.93;;;4.33;;
5285;SDS011;2665;53.112;7.358;2022-12-18T09:36:00;8.50;;;3.63;;
5285;SDS011;2665;53.112;7.358;2022-12-18T09:38:28;7.13;;;3.87;;
5285;SDS011;2665;53.112;7.358;2022-12-18T09:40:55;7.60;;;4.10;;
5285;SDS011;2665;53.112;7.358;2022-12-18T09:46:06;8.00;;;3.40;;
5285;SDS011;2665;53.112;7.358;2022-12-18T09:48:36;8.37;;;4.30;;
5285;SDS011;2665;53.112;7.358;2022-12-18T09:51:16;6.00;;;4.00;;
5285;SDS011;2665;53.112;7.358;2022-12-18T09:53:59;6.33;;;4.27;;
5285;SDS011;2665;53.112;7.358;2022-12-18T09:56:28;5.40;;;4.10;;
5285;SDS011;2665;53.112;7.358;2022-12-18T09:59:00;8.83;;;5.50;;
5285;SDS011;2665;53.112;7.358;2022-12-18T10:01:27;5.43;;;3.97;;
5285;SDS011;2665;53.112;7.358;2022-12-18T10:03:54;6.67;;;3.70;;
5285;SDS011;2665;53.112;7.358;2022-12-18T10:06:29;6.00;;;3.00;;
5285;SDS011;2665;53.112;7.358;2022-12-18T10:12:38;6.20;;;4.30;;
5285;SDS011;2665;53.112;7.358;2022-12-18T10:15:21;5.70;;;3.20;;
5285;SDS011;2665;53.112;7.358;2022-12-18T10:17:52;5.17;;;2.90;;
5285;SDS011;2665;53.112;7.358;2022-12-18T10:20:49;6.13;;;3.77;;
5285;SDS011;2665;53.112;7.358;2022-12-18T10:26:04;7.93;;;2.43;;
5285;SDS011;2665;53.112;7.358;2022-12-18T10:28:35;7.43;;;3.73;;
5285;SDS011;2665;53.112;7.358;2022-12-18T10:31:02;8.10;;;3.03;;
5285;SDS011;2665;53.112;7.358;2022-12-18T10:33:44;6.60;;;3.10;;
5285;SDS011;2665;53.112;7.358;2022-12-18T10:36:10;12.30;;;4.53;;
5285;SDS011;2665;53.112;7.358;2022-12-18T10:38:36;5.60;;;3.63;;
5285;SDS011;2665;53.112;7.358;2022-12-18T10:41:24;8.07;;;3.73;;
5285;SDS011;2665;53.112;7.358;2022-12-18T10:46:40;4.93;;;2.73;;
5285;SDS011;2665;53.112;7.358;2022-12-18T10:49:07;5.50;;;2.87;;
5285;SDS011;2665;53.112;7.358;2022-12-18T10:51:45;6.33;;;3.63;;
5285;SDS011;2665;53.112;7.358;2022-12-18T10:54:15;7.50;;;3.53;;
5285;SDS011;2665;53.112;7.358;2022-12-18T10:56:46;3.83;;;2.93;;
5285;SDS011;2665;53.112;7.358;2022-12-18T10:59:13;8.17;;;3.83;;
5285;SDS011;2665;53.112;7.358;2022-12-18T11:04:23;7.43;;;3.63;;
5285;SDS011;2665;53.112;7.358;2022-12-18T11:07:03;6.67;;;3.77;;
5285;SDS011;2665;53.112;7.358;2022-12-18T11:09:30;7.23;;;4.03;;
5285;SDS011;2665;53.112;7.358;2022-12-18T11:11:58;4.27;;;3.10;;
5285;SDS011;2665;53.112;7.358;2022-12-18T11:14:32;5.60;;;3.63;;
5285;SDS011;2665;53.112;7.358;2022-12-18T11:16:59;7.50;;;3.90;;
5285;SDS011;2665;53.112;7.358;2022-12-18T11:19:34;5.70;;;3.70;;
5285;SDS011;2665;53.112;7.358;2022-12-18T11:22:02;5.30;;;3.47;;
5285;SDS011;2665;53.112;7.358;2022-12-18T11:24:30;4.60;;;3.10;;
5285;SDS011;2665;53.112;7.358;2022-12-18T11:27:00;5.60;;;3.00;;
5285;SDS011;2665;53.112;7.358;2022-12-18T11:29:37;7.17;;;3.77;;
5285;SDS011;2665;53.112;7.358;2022-12-18T11:34:50;4.53;;;2.90;;
5285;SDS011;2665;53.112;7.358;2022-12-18T11:37:17;7.63;;;4.33;;
5285;SDS011;2665;53.112;7.358;2022-12-18T11:39:51;4.17;;;3.10;;
5285;SDS011;2665;53.112;7.358;2022-12-18T11:42:22;6.90;;;3.97;;
5285;SDS011;2665;53.112;7.358;2022-12-18T11:45:00;6.57;;;4.87;;
5285;SDS011;2665;53.112;7.358;2022-12-18T11:47:29;7.67;;;4.87;;
5285;SDS011;2665;53.112;7.358;2022-12-18T11:49:59;4.80;;;3.67;;
5285;SDS011;2665;53.112;7.358;2022-12-18T11:52:34;6.80;;;4.80;;
5285;SDS011;2665;53.112;7.358;2022-12-18T11:55:04;6.20;;;4.30;;
5285;SDS011;2665;53.112;7.358;2022-12-18T11:57:39;6.40;;;4.50;;
5285;SDS011;2665;53.112;7.358;2022-12-18T12:00:12;4.53;;;2.77;;
5285;SDS011;2665;53.112;7.358;2022-12-18T12:20:44;8.00;;;3.67;;
5285;SDS011;2665;53.112;7.358;2022-12-18T12:23:22;5.73;;;3.87;;
5285;SDS011;2665;53.112;7.358;2022-12-18T12:26:13;5.27;;;3.40;;
5285;SDS011;2665;53.112;7.358;2022-12-18T12:28:42;4.93;;;3.17;;
5285;SDS011;2665;53.112;7.358;2022-12-18T12:31:19;4.80;;;2.97;;
5285;SDS011;2665;53.112;7.358;2022-12-18T12:33:57;6.23;;;3.40;;
5285;SDS011;2665;53.112;7.358;2022-12-18T12:36:36;4.93;;;4.20;;
5285;SDS011;2665;53.112;7.358;2022-12-18T12:39:06;4.17;;;2.97;;
5285;SDS011;2665;53.112;7.358;2022-12-18T12:41:34;8.63;;;4.23;;
5285;SDS011;2665;53.112;7.358;2022-12-18T12:44:27;5.10;;;3.53;;
5285;SDS011;2665;53.112;7.358;2022-12-18T12:46:58;5.00;;;3.47;;
5285;SDS011;2665;53.112;7.358;2022-12-18T12:49:27;5.70;;;3.77;;
5285;SDS011;2665;53.112;7.358;2022-12-18T12:52:04;5.40;;;3.83;;
5285;SDS011;2665;53.112;7.358;2022-12-18T12:54:31;6.60;;;5.37;;
5285;SDS011;2665;53.112;7.358;2022-12-18T13:02:20;6.23;;;3.83;;
5285;SDS011;2665;53.112;7.358;2022-12-18T13:07:23;6.83;;;3.70;;
5285;SDS011;2665;53.112;7.358;2022-12-18T13:12:37;4.13;;;2.83;;
5285;SDS011;2665;53.112;7.358;2022-12-18T13:15:24;7.23;;;3.90;;
5285;SDS011;2665;53.112;7.358;2022-12-18T13:20:39;5.77;;;3.57;;
5285;SDS011;2665;53.112;7.358;2022-12-18T13:33:40;6.70;;;2.93;;
5285;SDS011;2665;53.112;7.358;2022-12-18T13:36:14;6.40;;;3.73;;
5285;SDS011;2665;53.112;7.358;2022-12-18T13:38:41;6.07;;;3.37;;
5285;SDS011;2665;53.112;7.358;2022-12-18T13:43:45;12.93;;;3.97;;
5285;SDS011;2665;53.112;7.358;2022-12-18T13:51:25;7.83;;;3.50;;
5285;SDS011;2665;53.112;7.358;2022-12-18T13:53:53;4.83;;;2.80;;
5285;SDS011;2665;53.112;7.358;2022-12-18T13:56:24;5.50;;;3.70;;
5285;SDS011;2665;53.112;7.358;2022-12-18T14:01:54;7.80;;;3.60;;
5285;SDS011;2665;53.112;7.358;2022-12-18T14:06:50;8.70;;;4.87;;
5285;SDS011;2665;53.112;7.358;2022-12-18T14:09:18;4.53;;;3.20;;
5285;SDS011;2665;53.112;7.358;2022-12-18T14:11:46;5.30;;;3.37;;
5285;SDS011;2665;53.112;7.358;2022-12-18T14:14:14;7.93;;;4.23;;
5285;SDS011;2665;53.112;7.358;2022-12-18T14:16:40;4.90;;;3.23;;
5285;SDS011;2665;53.112;7.358;2022-12-18T14:19:08;5.53;;;4.60;;
5285;SDS011;2665;53.112;7.358;2022-12-18T14:21:37;5.13;;;3.60;;
5285;SDS011;2665;53.112;7.358;2022-12-18T14:24:17;5.73;;;2.97;;
5285;SDS011;2665;53.112;7.358;2022-12-18T14:26:44;5.27;;;3.20;;
5285;SDS011;2665;53.112;7.358;2022-12-18T14:31:43;4.70;;;2.63;;
5285;SDS011;2665;53.112;7.358;2022-12-18T14:34:15;8.23;;;3.80;;
5285;SDS011;2665;53.112;7.358;2022-12-18T14:36:41;5.37;;;3.60;;
5285;SDS011;2665;53.112;7.358;2022-12-18T14:39:17;5.10;;;2.97;;
5285;SDS011;2665;53.112;7.358;2022-12-18T14:41:43;4.30;;;3.10;;
5285;SDS011;2665;53.112;7.358;2022-12-18T14:44:10;7.00;;;3.67;;
5285;SDS011;2665;53.112;7.358;2022-12-18T14:46:44;8.97;;;4.47;;
5285;SDS011;2665;53.112;7.358;2022-12-18T14:49:18;6.17;;;3.93;;
5285;SDS011;2665;53.112;7.358;2022-12-18T14:51:50;5.37;;;3.30;;
5285;SDS011;2665;53.112;7.358;2022-12-18T14:54:17;4.77;;;3.43;;
5285;SDS011;2665;53.112;7.358;2022-12-18T14:56:45;6.43;;;3.50;;
5285;SDS011;2665;53.112;7.358;2022-12-18T14:59:13;8.00;;;3.20;;
5285;SDS011;2665;53.112;7.358;2022-12-18T15:04:24;6.83;;;3.30;;
5285;SDS011;2665;53.112;7.358;2022-12-18T15:09:30;5.70;;;2.73;;
5285;SDS011;2665;53.112;7.358;2022-12-18T15:11:57;4.83;;;2.83;;
5285;SDS011;2665;53.112;7.358;2022-12-18T15:14:24;4.13;;;2.33;;
5285;SDS011;2665;53.112;7.358;2022-12-18T15:16:53;5.63;;;2.60;;
5285;SDS011;2665;53.112;7.358;2022-12-18T15:19:20;4.50;;;2.47;;
5285;SDS011;2665;53.112;7.358;2022-12-18T15:21:47;5.30;;;2.80;;
5285;SDS011;2665;53.112;7.358;2022-12-18T15:24:21;4.17;;;2.60;;
5285;SDS011;2665;53.112;7.358;2022-12-18T15:26:50;5.77;;;3.60;;
5285;SDS011;2665;53.112;7.358;2022-12-18T15:29:22;6.23;;;2.90;;
5285;SDS011;2665;53.112;7.358;2022-12-18T15:32:03;6.00;;;3.50;;
5285;SDS011;2665;53.112;7.358;2022-12-18T15:34:29;3.90;;;2.97;;
5285;SDS011;2665;53.112;7.358;2022-12-18T15:36:56;5.33;;;3.27;;
5285;SDS011;2665;53.112;7.358;2022-12-18T15:39:22;5.43;;;3.10;;
5285;SDS011;2665;53.112;7.358;2022-12-18T15:41:48;4.83;;;3.43;;
5285;SDS011;2665;53.112;7.358;2022-12-18T15:44:34;3.47;;;2.50;;
5285;SDS011;2665;53.112;7.358;2022-12-18T15:47:00;3.73;;;2.13;;
5285;SDS011;2665;53.112;7.358;2022-12-18T15:49:26;4.10;;;2.47;;
5285;SDS011;2665;53.112;7.358;2022-12-18T15:51:53;11.47;;;3.10;;
5285;SDS011;2665;53.112;7.358;2022-12-18T15:54:19;4.60;;;3.10;;
5285;SDS011;2665;53.112;7.358;2022-12-18T15:57:07;4.40;;;2.00;;
5285;SDS011;2665;53.112;7.358;2022-12-18T15:59:53;4.30;;;2.80;;
5285;SDS011;2665;53.112;7.358;2022-12-18T16:02:21;6.17;;;2.70;;
5285;SDS011;2665;53.112;7.358;2022-12-18T16:04:47;5.50;;;3.13;;
5285;SDS011;2665;53.112;7.358;2022-12-18T16:07:13;5.43;;;3.00;;
5285;SDS011;2665;53.112;7.358;2022-12-18T16:09:39;3.37;;;2.13;;
5285;SDS011;2665;53.112;7.358;2022-12-18T16:12:08;6.37;;;3.10;;
5285;SDS011;2665;53.112;7.358;2022-12-18T16:14:36;6.20;;;2.57;;
5285;SDS011;2665;53.112;7.358;2022-12-18T16:17:04;5.60;;;3.20;;
5285;SDS011;2665;53.112;7.358;2022-12-18T16:19:31;3.17;;;2.10;;
5285;SDS011;2665;53.112;7.358;2022-12-18T16:21:57;3.53;;;2.57;;
5285;SDS011;2665;53.112;7.358;2022-12-18T16:24:25;3.83;;;2.50;;
5285;SDS011;2665;53.112;7.358;2022-12-18T16:26:51;3.70;;;2.63;;
5285;SDS011;2665;53.112;7.358;2022-12-18T16:29:18;6.83;;;3.20;;
5285;SDS011;2665;53.112;7.358;2022-12-18T16:31:44;4.90;;;2.13;;
5285;SDS011;2665;53.112;7.358;2022-12-18T16:36:49;4.30;;;2.43;;
5285;SDS011;2665;53.112;7.358;2022-12-18T16:39:15;3.83;;;2.43;;
5285;SDS011;2665;53.112;7.358;2022-12-18T16:41:41;3.37;;;2.00;;
5285;SDS011;2665;53.112;7.358;2022-12-18T16:44:08;3.80;;;1.97;;
5285;SDS011;2665;53.112;7.358;2022-12-18T16:46:35;4.60;;;2.57;;
5285;SDS011;2665;53.112;7.358;2022-12-18T16:49:01;5.43;;;2.80;;
5285;SDS011;2665;53.112;7.358;2022-12-18T16:51:27;3.80;;;2.10;;
5285;SDS011;2665;53.112;7.358;2022-12-18T16:53:53;2.20;;;1.60;;
5285;SDS011;2665;53.112;7.358;2022-12-18T16:56:22;4.10;;;2.20;;
5285;SDS011;2665;53.112;7.358;2022-12-18T16:58:49;4.03;;;2.23;;
5285;SDS011;2665;53.112;7.358;2022-12-18T17:01:15;4.33;;;2.30;;
5285;SDS011;2665;53.112;7.358;2022-12-18T17:03:41;4.63;;;2.57;;
5285;SDS011;2665;53.112;7.358;2022-12-18T17:06:07;6.53;;;3.43;;
5285;SDS011;2665;53.112;7.358;2022-12-18T17:08:34;5.00;;;2.60;;
5285;SDS011;2665;53.112;7.358;2022-12-18T17:11:06;3.70;;;2.37;;